Warner Springs, CA (92086)

2:39 AM PDT on August 25, 2016 (GMT -0700)
MesoWest | | Change Station

Elev 2970 ft 33.32 °N, 116.68 °W | Updated 22 minutes ago

Clear
Clear
59 °F
Feels Like 59 °F
N
0
Wind Variable Wind from North
Gusts 0.0 mph

Today
High -- | Low -- °F
--% Chance of Precip.
Yesterday
High -- | Low -- °F
Precip. -- in
Pressure 29.93 in
Visibility 10.0 miles
Clouds Clear
Dew Point 43 °F
Humidity 56%
Rainfall in
Snow Depth Not available.
6:16 AM 7:19 PM
Waning Gibbous, 47% visible
METAR KRNM 250853Z 00000KT 10SM CLR 15/11 A2997 RMK AO2 SLP133 T01500111 58009
Pressure 29.93 in
Visibility 10.0 miles
Clouds Clear
Dew Point 43 °F
Humidity 56%
Rainfall in
Snow Depth Not available.
6:16 AM 7:19 PM
Waning Gibbous, 47% visible
METAR KRNM 250853Z 00000KT 10SM CLR 15/11 A2997 RMK AO2 SLP133 T01500111 58009

10-Day Weather Forecast

Almanac

Astronomy

Aug. 25, 2016 Rise Set
Actual Time
Civil Twilight
Nautical Twilight
Astronomical Twilight
Moon
Length of Visible Light
Length of Day
Tomorrow will be .
, % of the Moon is Illuminated

Today's Extremes

State Highs State Lows

Community

WunderPhotos

Upload Photos

1,934,814 photos uploaded!

WunderBlog® & News

Nearby

Air Quality

  Air Quality AQ Index Pollutant
Not available.

Snow Depth

Station Depth Elevation

Earthquake Activity

City Distance Mag. Time & Date
Minimum magnitude displayed is 2.5.

Coastal Water Temperatures

Place Temperature

Stations

Nearby Weather Stations

Station Location Temp. Windchill Dew Point Humidity Wind Precip. Elev Updated Type
                   

Watches & Warnings

There are currently no watches in effect.